createdAt,value
2019-05-23T00:02:11.695Z,46.60
2019-05-23T00:04:44.667Z,46.00
2019-05-23T00:07:14.291Z,44.60
2019-05-23T00:09:43.173Z,44.00
2019-05-23T00:12:30.275Z,43.10
2019-05-23T00:15:00.382Z,42.90
2019-05-23T00:17:29.076Z,42.80
2019-05-23T00:19:56.624Z,42.60
2019-05-23T00:22:24.609Z,42.80
2019-05-23T00:24:52.400Z,43.40
2019-05-23T00:27:23.342Z,42.90
2019-05-23T00:29:50.744Z,42.90
2019-05-23T00:32:25.736Z,43.10
2019-05-23T00:34:53.848Z,42.70
2019-05-23T00:37:23.244Z,43.30
2019-05-23T00:39:50.236Z,42.70
2019-05-23T00:42:18.028Z,43.20
2019-05-23T00:44:44.847Z,43.00
2019-05-23T00:47:13.001Z,42.90
2019-05-23T00:49:41.647Z,42.50
2019-05-23T00:52:09.152Z,42.50
2019-05-23T00:54:36.642Z,42.70
2019-05-23T00:57:04.364Z,42.80
2019-05-23T00:59:32.315Z,43.10
2019-05-23T01:01:59.560Z,43.40
2019-05-23T01:04:27.656Z,43.20
2019-05-23T01:06:55.608Z,43.60
2019-05-23T01:09:24.541Z,43.90
2019-05-23T01:11:51.337Z,47.20
2019-05-23T01:14:18.329Z,49.30
2019-05-23T01:16:46.439Z,51.30
2019-05-23T01:19:14.719Z,50.50
2019-05-23T01:21:53.851Z,50.00
2019-05-23T01:24:27.268Z,48.00
2019-05-23T01:26:55.794Z,45.60
2019-05-23T01:29:24.303Z,45.50
2019-05-23T01:31:53.312Z,45.70
2019-05-23T01:34:21.409Z,45.70
2019-05-23T01:36:49.281Z,45.40
2019-05-23T01:39:17.372Z,45.70
2019-05-23T01:41:44.497Z,46.20
2019-05-23T01:44:13.954Z,46.60
2019-05-23T01:46:42.097Z,46.70
2019-05-23T01:49:11.210Z,46.10
2019-05-23T01:51:38.105Z,46.20
2019-05-23T01:54:05.304Z,46.20
2019-05-23T01:56:32.104Z,45.70
2019-05-23T01:58:59.327Z,45.90
2019-05-23T02:01:26.417Z,46.00
2019-05-23T02:03:53.493Z,48.30
2019-05-23T02:06:21.579Z,48.90
2019-05-23T02:08:49.542Z,49.30
2019-05-23T02:11:22.395Z,50.00
2019-05-23T02:13:50.023Z,50.70
2019-05-23T02:16:19.013Z,48.40
2019-05-23T02:18:47.001Z,47.40
2019-05-23T02:21:15.910Z,46.50
2019-05-23T02:23:43.211Z,46.50
2019-05-23T02:26:12.345Z,46.50
2019-05-23T02:28:41.056Z,46.40
2019-05-23T02:31:09.381Z,46.50
2019-05-23T02:33:36.858Z,46.40
2019-05-23T02:36:04.515Z,46.00
2019-05-23T02:38:37.454Z,45.80
2019-05-23T02:41:15.517Z,45.50
2019-05-23T02:43:44.845Z,45.50
2019-05-23T02:46:18.908Z,45.80
2019-05-23T02:48:48.084Z,45.70
2019-05-23T02:51:36.465Z,45.80
2019-05-23T02:54:09.962Z,45.40
2019-05-23T02:56:37.947Z,45.50
2019-05-23T02:59:38.851Z,45.40
2019-05-23T03:02:37.166Z,45.50
2019-05-23T03:05:10.012Z,45.40
2019-05-23T03:07:38.197Z,46.00
2019-05-23T03:10:06.529Z,45.80
2019-05-23T03:12:35.444Z,46.20
2019-05-23T03:15:03.619Z,46.20
2019-05-23T03:17:34.077Z,46.20
2019-05-23T03:20:05.359Z,48.60
2019-05-23T03:22:50.024Z,50.20
2019-05-23T03:25:30.850Z,50.80
2019-05-23T03:27:57.668Z,50.70
2019-05-23T03:30:32.507Z,50.00
2019-05-23T03:33:01.930Z,49.70
2019-05-23T03:35:31.105Z,48.90
2019-05-23T03:37:59.288Z,48.60
2019-05-23T03:40:27.637Z,48.70
2019-05-23T03:42:55.635Z,48.70
2019-05-23T03:48:13.847Z,49.30
2019-05-23T03:50:40.944Z,49.00
2019-05-23T03:53:09.541Z,48.90
2019-05-23T03:55:38.164Z,49.00
2019-05-23T03:58:06.139Z,48.50
2019-05-23T04:00:36.039Z,48.20
2019-05-23T04:03:03.792Z,48.30
2019-05-23T04:05:31.069Z,48.10
2019-05-23T04:07:58.148Z,48.30
2019-05-23T04:10:25.364Z,48.40
2019-05-23T04:12:52.465Z,47.90
2019-05-23T04:15:19.889Z,47.60
2019-05-23T04:17:47.040Z,47.50
2019-05-23T04:20:15.154Z,47.40
2019-05-23T04:22:42.253Z,47.40
2019-05-23T04:25:10.391Z,47.10
2019-05-23T04:27:37.786Z,46.90
2019-05-23T04:30:07.429Z,46.80
2019-05-23T04:32:34.466Z,46.80
2019-05-23T04:35:01.284Z,46.60
2019-05-23T04:37:28.466Z,46.70
2019-05-23T04:39:55.755Z,46.50
2019-05-23T04:42:22.855Z,46.40
2019-05-23T04:44:49.647Z,46.40
2019-05-23T04:47:16.996Z,47.20
2019-05-23T04:49:44.579Z,47.40
2019-05-23T04:52:11.988Z,47.90
2019-05-23T04:54:40.526Z,47.30
2019-05-23T04:57:08.215Z,47.30
2019-05-23T04:59:35.029Z,47.60
2019-05-23T05:02:02.148Z,48.60
2019-05-23T05:04:30.229Z,50.40
2019-05-23T05:06:57.032Z,50.50
2019-05-23T05:09:25.640Z,53.20
2019-05-23T05:11:53.253Z,55.10
2019-05-23T05:14:21.028Z,55.80
2019-05-23T05:16:48.864Z,54.90
2019-05-23T05:19:16.258Z,55.60
2019-05-23T05:21:43.048Z,55.40
2019-05-23T05:24:09.853Z,55.40
2019-05-23T05:26:36.988Z,57.10
2019-05-23T05:29:04.463Z,55.60
2019-05-23T05:31:31.321Z,57.20
2019-05-23T05:33:58.394Z,57.80
2019-05-23T05:36:25.233Z,58.00
2019-05-23T05:38:52.742Z,57.90
2019-05-23T05:41:20.345Z,58.20
2019-05-23T05:43:48.022Z,57.40
2019-05-23T05:46:17.266Z,57.40
2019-05-23T05:48:44.965Z,58.90
2019-05-23T05:51:12.162Z,58.40
2019-05-23T05:53:39.250Z,58.10
2019-05-23T05:56:06.277Z,59.50
2019-05-23T05:58:33.364Z,60.00
2019-05-23T06:01:02.094Z,60.00
2019-05-23T06:03:30.116Z,59.40
2019-05-23T06:06:15.436Z,59.30
2019-05-23T06:08:44.270Z,58.90
2019-05-23T06:11:11.858Z,58.10
2019-05-23T06:13:39.609Z,57.50
2019-05-23T06:16:06.936Z,56.30
2019-05-23T06:18:34.902Z,55.60
2019-05-23T06:21:03.499Z,55.50
2019-05-23T06:23:30.714Z,56.10
2019-05-23T06:25:57.510Z,55.90
2019-05-23T06:28:24.921Z,55.90
2019-05-23T06:30:52.008Z,61.10
2019-05-23T06:33:23.876Z,66.20
2019-05-23T06:35:48.779Z,61.60
2019-05-23T06:38:15.999Z,61.20
2019-05-23T06:40:43.734Z,59.90
2019-05-23T06:43:11.373Z,58.00
2019-05-23T06:45:41.345Z,67.10
2019-05-23T06:48:09.737Z,58.20
2019-05-23T06:50:36.956Z,57.00
2019-05-23T06:53:05.905Z,55.80
2019-05-23T06:55:32.804Z,58.30
2019-05-23T06:58:00.631Z,59.10
2019-05-23T07:00:29.396Z,54.10
2019-05-23T07:02:56.729Z,55.10
2019-05-23T07:05:29.299Z,54.50
2019-05-23T07:07:56.265Z,52.70
2019-05-23T07:10:24.001Z,55.80
2019-05-23T07:12:52.281Z,52.80
2019-05-23T07:15:19.388Z,53.70
2019-05-23T07:17:46.779Z,52.40
2019-05-23T07:20:15.004Z,51.70
2019-05-23T07:22:55.595Z,52.10
2019-05-23T07:25:22.761Z,50.80
2019-05-23T07:27:51.176Z,54.20
2019-05-23T07:30:25.144Z,54.60
2019-05-23T07:32:52.781Z,52.40
2019-05-23T07:35:39.446Z,52.90
2019-05-23T07:38:07.039Z,50.70
2019-05-23T07:40:34.178Z,51.70
2019-05-23T07:43:01.977Z,51.50
2019-05-23T07:45:39.729Z,51.00
2019-05-23T07:48:07.351Z,52.60
2019-05-23T07:50:34.607Z,51.50
2019-05-23T07:53:03.725Z,52.50
2019-05-23T07:55:38.644Z,51.00
2019-05-23T07:58:06.128Z,50.30
2019-05-23T08:00:37.799Z,50.20
2019-05-23T08:03:07.762Z,50.40
2019-05-23T08:05:34.845Z,50.60
2019-05-23T08:08:02.250Z,50.80
2019-05-23T08:10:33.702Z,50.60
2019-05-23T08:12:59.051Z,50.40
2019-05-23T08:15:27.553Z,50.50
2019-05-23T08:17:54.906Z,50.60
2019-05-23T08:20:22.090Z,50.50
2019-05-23T08:22:49.202Z,50.30
2019-05-23T08:25:16.825Z,49.80
2019-05-23T08:27:43.834Z,49.90
2019-05-23T08:30:12.244Z,49.80
2019-05-23T08:32:39.653Z,49.70
2019-05-23T08:35:07.972Z,48.20
2019-05-23T08:37:36.448Z,47.50
2019-05-23T08:40:05.458Z,47.60
2019-05-23T08:42:33.158Z,48.60
2019-05-23T08:45:01.599Z,48.30
2019-05-23T08:47:28.674Z,48.00
2019-05-23T08:49:55.868Z,48.00
2019-05-23T08:52:22.668Z,47.90
2019-05-23T08:54:55.009Z,48.30
2019-05-23T08:57:22.561Z,47.40
2019-05-23T08:59:49.337Z,46.50
2019-05-23T09:02:16.157Z,46.50
2019-05-23T09:05:02.602Z,46.30
2019-05-23T09:07:13.004Z,46.30
2019-05-23T09:09:40.111Z,45.80
2019-05-23T09:12:08.532Z,46.90
2019-05-23T09:14:36.670Z,46.50
2019-05-23T09:17:05.306Z,46.50
2019-05-23T09:19:32.714Z,46.70
2019-05-23T09:21:59.887Z,47.20
2019-05-23T09:24:27.325Z,47.40
2019-05-23T09:26:54.368Z,47.50
2019-05-23T09:29:21.354Z,45.50
2019-05-23T09:31:48.538Z,44.30
2019-05-23T09:34:15.332Z,45.20
2019-05-23T09:36:42.449Z,45.00
2019-05-23T09:39:11.379Z,45.50
2019-05-23T09:41:38.612Z,46.20
2019-05-23T09:44:06.397Z,45.70
2019-05-23T09:46:33.847Z,46.20
2019-05-23T09:49:01.060Z,46.10
2019-05-23T09:51:28.037Z,46.10
2019-05-23T09:53:54.975Z,46.50
2019-05-23T09:56:22.078Z,45.90
2019-05-23T09:58:48.861Z,44.30
2019-05-23T10:01:17.362Z,44.80
2019-05-23T10:03:44.476Z,45.80
2019-05-23T10:06:11.252Z,46.00
2019-05-23T10:08:38.112Z,46.00
2019-05-23T10:11:04.900Z,45.60
2019-05-23T10:13:38.941Z,45.40
2019-05-23T10:16:05.250Z,45.10
2019-05-23T10:18:32.230Z,45.20
2019-05-23T10:20:59.012Z,45.10
2019-05-23T10:23:25.963Z,45.00
2019-05-23T10:25:52.771Z,45.30
2019-05-23T10:28:20.053Z,45.80
2019-05-23T10:30:46.924Z,45.50
2019-05-23T10:33:14.020Z,45.30
2019-05-23T10:35:56.941Z,44.50
2019-05-23T10:38:10.415Z,45.10
2019-05-23T10:40:38.528Z,45.50
2019-05-23T10:43:05.297Z,45.10
2019-05-23T10:45:32.800Z,45.80
2019-05-23T10:48:00.176Z,45.30
2019-05-23T10:50:26.969Z,45.20
2019-05-23T10:52:53.874Z,45.30
2019-05-23T10:55:20.668Z,45.30
2019-05-23T10:57:47.503Z,44.80
2019-05-23T11:00:18.039Z,44.90
2019-05-23T11:02:45.985Z,43.00
2019-05-23T11:05:14.364Z,43.90
2019-05-23T11:07:41.686Z,43.30
2019-05-23T11:10:09.510Z,39.70
2019-05-23T11:12:36.687Z,39.20
2019-05-23T11:15:05.726Z,39.50
2019-05-23T11:17:33.716Z,39.00
2019-05-23T11:20:00.517Z,39.40
2019-05-23T11:22:28.062Z,38.80
2019-05-23T11:24:55.176Z,39.40
2019-05-23T11:27:22.704Z,39.40
2019-05-23T11:29:49.583Z,39.40
2019-05-23T11:32:20.088Z,39.30
2019-05-23T11:34:46.716Z,39.80
2019-05-23T11:37:13.961Z,38.90
2019-05-23T11:39:48.861Z,38.70
2019-05-23T11:42:09.516Z,38.20
2019-05-23T11:44:36.603Z,38.30
2019-05-23T11:47:04.755Z,37.60
2019-05-23T11:49:31.574Z,37.90
2019-05-23T11:51:59.063Z,39.00
2019-05-23T11:54:26.682Z,38.40
2019-05-23T11:56:55.435Z,38.60
2019-05-23T11:59:22.559Z,38.60
2019-05-23T12:01:54.096Z,37.90
2019-05-23T12:04:21.884Z,37.60
2019-05-23T12:06:55.105Z,37.40
2019-05-23T12:09:20.966Z,37.90
2019-05-23T12:11:47.908Z,38.20
2019-05-23T12:14:14.955Z,38.60
2019-05-23T12:16:42.520Z,38.60
2019-05-23T12:19:09.907Z,38.20
2019-05-23T12:21:36.774Z,36.90
2019-05-23T12:24:03.871Z,37.30
2019-05-23T12:26:30.672Z,36.70
2019-05-23T12:28:58.000Z,36.90
2019-05-23T12:31:25.114Z,36.40
2019-05-23T12:33:53.031Z,34.90
2019-05-23T12:36:20.660Z,34.90
2019-05-23T12:38:47.555Z,34.90
2019-05-23T12:41:15.134Z,36.00
2019-05-23T12:43:42.234Z,35.40
2019-05-23T12:46:09.068Z,36.70
2019-05-23T12:48:54.641Z,36.90
2019-05-23T12:51:23.598Z,36.60
2019-05-23T12:53:50.692Z,36.70
2019-05-23T12:56:17.813Z,36.60
2019-05-23T12:58:45.805Z,36.60
2019-05-23T13:01:14.700Z,36.50
2019-05-23T13:03:42.957Z,37.10
2019-05-23T13:06:10.338Z,36.10
2019-05-23T13:08:37.536Z,35.10
2019-05-23T13:11:04.436Z,34.80
2019-05-23T13:13:31.222Z,34.40
2019-05-23T13:15:58.060Z,34.10
2019-05-23T13:18:25.078Z,34.40
2019-05-23T13:20:52.294Z,35.10
2019-05-23T13:23:21.413Z,34.80
2019-05-23T13:25:48.583Z,34.90
2019-05-23T13:28:15.386Z,34.80
2019-05-23T13:30:42.845Z,35.00
2019-05-23T13:33:10.520Z,34.70
2019-05-23T13:35:37.709Z,35.30
2019-05-23T13:38:04.810Z,35.70
2019-05-23T13:40:31.872Z,35.40
2019-05-23T13:42:59.161Z,35.20
2019-05-23T13:45:27.799Z,35.20
2019-05-23T13:47:54.929Z,35.30
2019-05-23T13:50:21.844Z,35.20
2019-05-23T13:52:49.553Z,35.30
2019-05-23T13:55:17.533Z,35.20
2019-05-23T13:57:44.833Z,35.30
2019-05-23T14:00:12.621Z,35.30
2019-05-23T14:02:39.656Z,35.70
2019-05-23T14:05:09.040Z,35.20
2019-05-23T14:07:37.149Z,34.10
2019-05-23T14:10:08.722Z,33.70
2019-05-23T14:12:35.684Z,32.90
2019-05-23T14:15:05.926Z,33.20
2019-05-23T14:17:43.323Z,32.70
2019-05-23T14:20:32.429Z,33.40
2019-05-23T14:23:01.322Z,33.40
2019-05-23T14:25:28.221Z,33.20
2019-05-23T14:27:56.930Z,33.50
2019-05-23T14:30:27.869Z,34.10
2019-05-23T14:33:13.421Z,33.20
2019-05-23T14:35:42.225Z,33.30
2019-05-23T14:38:29.215Z,33.40
2019-05-23T14:40:41.474Z,33.90
2019-05-23T14:43:10.080Z,31.60
2019-05-23T14:45:55.372Z,31.40
2019-05-23T14:48:24.764Z,30.70
2019-05-23T14:50:57.740Z,31.00
2019-05-23T14:53:32.333Z,31.20
2019-05-23T14:55:59.219Z,32.00
2019-05-23T14:58:27.139Z,31.80
2019-05-23T15:00:55.038Z,31.90
2019-05-23T15:03:22.444Z,32.10
2019-05-23T15:05:49.415Z,31.60
2019-05-23T15:08:16.893Z,31.60
2019-05-23T15:10:43.749Z,30.50
2019-05-23T15:13:10.559Z,29.20
2019-05-23T15:15:37.448Z,29.30
2019-05-23T15:18:04.994Z,29.30
2019-05-23T15:20:31.794Z,30.30
2019-05-23T15:23:00.142Z,30.10
2019-05-23T15:25:27.978Z,29.80
2019-05-23T15:27:54.787Z,30.20
2019-05-23T15:30:22.012Z,29.90
2019-05-23T15:32:48.856Z,30.10
2019-05-23T15:35:16.626Z,30.10
2019-05-23T15:37:43.520Z,30.40
2019-05-23T15:40:12.460Z,30.10
2019-05-23T15:42:39.533Z,30.00
2019-05-23T15:45:06.971Z,30.80
2019-05-23T15:47:35.602Z,31.70
2019-05-23T15:50:11.102Z,31.60
2019-05-23T15:52:39.463Z,31.40
2019-05-23T15:55:25.011Z,30.90
2019-05-23T15:58:10.658Z,31.00
2019-05-23T16:00:39.605Z,30.40
2019-05-23T16:03:09.216Z,30.20
2019-05-23T16:05:36.589Z,28.40
2019-05-23T16:08:04.020Z,28.60
2019-05-23T16:10:31.326Z,27.40
2019-05-23T16:12:58.475Z,26.90
2019-05-23T16:15:25.966Z,26.30
2019-05-23T16:17:52.857Z,25.80
2019-05-23T16:20:20.218Z,25.70
2019-05-23T16:22:47.016Z,24.70
2019-05-23T16:25:14.726Z,25.00
2019-05-23T16:27:41.839Z,23.80
2019-05-23T16:30:09.646Z,24.50
2019-05-23T16:32:36.944Z,23.80
2019-05-23T16:35:05.435Z,23.50
2019-05-23T16:37:32.268Z,23.50
2019-05-23T16:39:59.151Z,23.30
2019-05-23T16:42:26.718Z,23.50
2019-05-23T16:44:53.547Z,23.90
2019-05-23T16:47:20.709Z,23.00
2019-05-23T16:49:48.159Z,23.30
2019-05-23T16:52:15.221Z,23.50
2019-05-23T16:54:43.887Z,22.80
2019-05-23T16:57:28.725Z,23.70
2019-05-23T17:00:13.769Z,23.70
2019-05-23T17:02:58.908Z,24.10
2019-05-23T17:05:44.885Z,24.60
2019-05-23T17:08:17.733Z,24.60
2019-05-23T17:10:46.615Z,24.90
2019-05-23T17:13:15.298Z,25.70
2019-05-23T17:15:42.109Z,26.20
2019-05-23T17:18:27.638Z,26.40
2019-05-23T17:21:05.205Z,27.20
2019-05-23T17:23:41.412Z,27.10
2019-05-23T17:26:08.525Z,27.50
2019-05-23T17:28:37.530Z,28.30
2019-05-23T17:31:06.817Z,27.50
2019-05-23T17:33:36.999Z,27.10
2019-05-23T17:36:03.763Z,28.10
2019-05-23T17:38:30.864Z,27.90
2019-05-23T17:40:58.467Z,28.40
2019-05-23T17:43:25.546Z,28.70
2019-05-23T17:45:52.943Z,28.60
2019-05-23T17:48:19.833Z,28.40
2019-05-23T17:50:46.935Z,28.90
2019-05-23T17:53:14.325Z,28.80
2019-05-23T17:55:41.452Z,29.20
2019-05-23T17:58:08.258Z,29.50
2019-05-23T18:00:39.921Z,29.90
2019-05-23T18:03:07.644Z,29.80
2019-05-23T18:05:35.069Z,29.20
2019-05-23T18:08:04.706Z,28.90
2019-05-23T18:10:45.651Z,29.00
2019-05-23T18:13:08.867Z,28.50
2019-05-23T18:15:36.216Z,28.60
2019-05-23T18:18:04.622Z,29.00
2019-05-23T18:20:32.333Z,28.40
2019-05-23T18:22:59.216Z,28.80
2019-05-23T18:25:26.998Z,29.60
2019-05-23T18:27:54.000Z,29.60
2019-05-23T18:30:23.367Z,30.40
2019-05-23T18:32:51.110Z,31.00
2019-05-23T18:35:19.491Z,31.10
2019-05-23T18:37:47.285Z,30.90
2019-05-23T18:40:15.137Z,31.40
2019-05-23T18:42:41.925Z,31.40
2019-05-23T18:45:09.929Z,31.60
2019-05-23T18:47:38.552Z,32.10
2019-05-23T18:50:06.634Z,32.60
2019-05-23T18:52:34.053Z,32.30
2019-05-23T18:55:00.963Z,32.40
2019-05-23T18:57:27.849Z,32.70
2019-05-23T18:59:55.286Z,32.90
2019-05-23T19:02:23.537Z,33.10
2019-05-23T19:04:51.408Z,33.00
2019-05-23T19:07:18.595Z,33.60
2019-05-23T19:09:46.162Z,33.80
2019-05-23T19:12:13.227Z,34.10
2019-05-23T19:14:40.340Z,34.00
2019-05-23T19:17:07.408Z,33.90
2019-05-23T19:19:34.196Z,34.40
2019-05-23T19:22:01.752Z,35.00
2019-05-23T19:24:29.174Z,35.50
2019-05-23T19:26:56.396Z,35.50
2019-05-23T19:29:23.530Z,35.60
2019-05-23T19:31:51.204Z,35.90
2019-05-23T19:34:17.993Z,35.80
2019-05-23T19:36:45.893Z,35.50
2019-05-23T19:39:14.010Z,35.50
2019-05-23T19:41:40.900Z,35.50
2019-05-23T19:44:07.682Z,35.10
2019-05-23T19:46:34.482Z,35.00
2019-05-23T19:49:02.281Z,35.10
2019-05-23T19:51:30.023Z,34.80
2019-05-23T19:53:57.109Z,34.60
2019-05-23T19:56:24.366Z,33.90
2019-05-23T19:58:51.288Z,34.20
2019-05-23T20:01:18.264Z,34.40
2019-05-23T20:03:45.150Z,34.20
2019-05-23T20:06:13.319Z,33.80
2019-05-23T20:08:40.838Z,33.40
2019-05-23T20:11:08.335Z,33.30
2019-05-23T20:13:35.676Z,33.00
2019-05-23T20:16:03.345Z,32.70
2019-05-23T20:18:31.144Z,32.60
2019-05-23T20:20:58.255Z,32.20
2019-05-23T20:23:25.417Z,32.30
2019-05-23T20:25:52.268Z,32.40
2019-05-23T20:28:19.159Z,32.70
2019-05-23T20:30:50.526Z,32.60
2019-05-23T20:33:17.600Z,32.50
2019-05-23T20:35:44.654Z,32.40
2019-05-23T20:38:11.850Z,32.30
2019-05-23T20:40:39.354Z,33.00
2019-05-23T20:43:07.193Z,32.70
2019-05-23T20:45:36.124Z,32.90
2019-05-23T20:48:04.954Z,33.40
2019-05-23T20:50:32.557Z,33.50
2019-05-23T20:52:59.772Z,33.60
2019-05-23T20:55:26.808Z,33.70
2019-05-23T20:57:53.591Z,33.80
2019-05-23T21:00:22.422Z,33.80
2019-05-23T21:02:49.229Z,33.90
2019-05-23T21:05:16.147Z,33.90
2019-05-23T21:07:43.323Z,33.70
2019-05-23T21:10:15.500Z,33.60
2019-05-23T21:12:42.835Z,33.70
2019-05-23T21:15:10.210Z,34.00
2019-05-23T21:17:37.124Z,34.20
2019-05-23T21:20:05.709Z,34.80
2019-05-23T21:22:33.182Z,34.80
2019-05-23T21:24:59.956Z,35.30
2019-05-23T21:27:27.169Z,35.20
2019-05-23T21:29:53.988Z,35.50
2019-05-23T21:32:20.837Z,35.80
2019-05-23T21:34:47.641Z,36.10
2019-05-23T21:37:14.658Z,36.50
2019-05-23T21:39:41.460Z,36.60
2019-05-23T21:42:08.392Z,36.50
2019-05-23T21:44:35.498Z,36.70
2019-05-23T21:47:02.687Z,37.00
2019-05-23T21:49:29.774Z,37.20
2019-05-23T21:51:56.899Z,37.70
2019-05-23T21:54:24.134Z,38.20
2019-05-23T21:56:50.982Z,37.90
2019-05-23T21:59:17.831Z,38.30
2019-05-23T22:01:58.253Z,38.80
2019-05-23T22:04:27.354Z,38.90
2019-05-23T22:06:56.086Z,38.80
2019-05-23T22:09:23.753Z,39.00
2019-05-23T22:11:52.100Z,39.00
2019-05-23T22:14:19.391Z,39.10
2019-05-23T22:16:46.169Z,39.00
2019-05-23T22:19:15.092Z,39.20
2019-05-23T22:21:41.954Z,39.30
2019-05-23T22:24:10.047Z,39.40
2019-05-23T22:26:37.257Z,39.30
2019-05-23T22:29:05.638Z,39.70
2019-05-23T22:31:32.644Z,40.20
2019-05-23T22:34:04.220Z,40.20
2019-05-23T22:36:31.056Z,40.40
2019-05-23T22:38:57.844Z,40.70
2019-05-23T22:41:25.109Z,40.70
2019-05-23T22:43:51.988Z,40.70
2019-05-23T22:46:21.844Z,40.40
2019-05-23T22:48:48.950Z,40.80
2019-05-23T22:51:16.086Z,41.10
2019-05-23T22:53:43.293Z,41.20
2019-05-23T22:56:10.400Z,41.30
2019-05-23T22:58:37.330Z,41.80
2019-05-23T23:01:04.717Z,41.70
2019-05-23T23:03:31.619Z,41.80
2019-05-23T23:05:58.469Z,42.00
2019-05-23T23:08:27.304Z,42.40
2019-05-23T23:10:54.253Z,42.40
2019-05-23T23:13:36.097Z,42.40
2019-05-23T23:15:50.912Z,43.00
2019-05-23T23:18:17.986Z,43.90
2019-05-23T23:20:46.104Z,44.20
2019-05-23T23:23:14.004Z,45.00
2019-05-23T23:25:40.876Z,45.50
2019-05-23T23:28:07.713Z,45.10
2019-05-23T23:30:39.774Z,45.50
2019-05-23T23:33:06.588Z,46.40
2019-05-23T23:35:33.875Z,46.40
2019-05-23T23:38:00.671Z,46.80
2019-05-23T23:40:28.601Z,46.80
2019-05-23T23:42:55.417Z,46.60
2019-05-23T23:45:40.626Z,46.50
2019-05-23T23:48:26.307Z,46.60
2019-05-23T23:51:11.643Z,46.20
2019-05-23T23:53:56.852Z,46.40
2019-05-23T23:56:42.717Z,45.80
2019-05-23T23:59:09.986Z,46.00
